sensor_id;sensor_type;location;lat;lon;timestamp;P1;durP1;ratioP1;P2;durP2;ratioP2
17832;SDS011;9041;49.718;21.798;2023-08-20T00:00:59;23.60;;;12.20;;
17832;SDS011;9041;49.718;21.798;2023-08-20T00:03:27;22.63;;;12.27;;
17832;SDS011;9041;49.718;21.798;2023-08-20T00:05:54;19.83;;;12.07;;
17832;SDS011;9041;49.718;21.798;2023-08-20T00:08:21;19.52;;;12.63;;
17832;SDS011;9041;49.718;21.798;2023-08-20T00:10:48;20.08;;;12.57;;
17832;SDS011;9041;49.718;21.798;2023-08-20T00:13:15;20.70;;;12.80;;
17832;SDS011;9041;49.718;21.798;2023-08-20T00:15:43;17.55;;;12.13;;
17832;SDS011;9041;49.718;21.798;2023-08-20T00:18:12;18.77;;;12.27;;
17832;SDS011;9041;49.718;21.798;2023-08-20T00:20:39;18.55;;;12.07;;
17832;SDS011;9041;49.718;21.798;2023-08-20T00:23:07;21.05;;;13.18;;
17832;SDS011;9041;49.718;21.798;2023-08-20T00:25:34;20.75;;;12.25;;
17832;SDS011;9041;49.718;21.798;2023-08-20T00:28:02;20.95;;;13.25;;
17832;SDS011;9041;49.718;21.798;2023-08-20T00:30:29;25.77;;;13.98;;
17832;SDS011;9041;49.718;21.798;2023-08-20T00:32:55;22.95;;;14.00;;
17832;SDS011;9041;49.718;21.798;2023-08-20T00:35:24;24.60;;;14.07;;
17832;SDS011;9041;49.718;21.798;2023-08-20T00:37:51;24.63;;;14.75;;
17832;SDS011;9041;49.718;21.798;2023-08-20T00:40:17;25.15;;;15.50;;
17832;SDS011;9041;49.718;21.798;2023-08-20T00:42:44;26.90;;;14.88;;
17832;SDS011;9041;49.718;21.798;2023-08-20T00:45:10;25.20;;;15.63;;
17832;SDS011;9041;49.718;21.798;2023-08-20T00:47:37;25.73;;;15.02;;
17832;SDS011;9041;49.718;21.798;2023-08-20T00:50:04;25.45;;;14.77;;
17832;SDS011;9041;49.718;21.798;2023-08-20T00:52:33;28.52;;;15.52;;
17832;SDS011;9041;49.718;21.798;2023-08-20T00:55:00;25.67;;;14.40;;
17832;SDS011;9041;49.718;21.798;2023-08-20T00:57:32;22.88;;;14.68;;
17832;SDS011;9041;49.718;21.798;2023-08-20T00:59:58;25.42;;;15.05;;
17832;SDS011;9041;49.718;21.798;2023-08-20T01:02:25;29.55;;;14.95;;
17832;SDS011;9041;49.718;21.798;2023-08-20T01:04:52;28.30;;;15.52;;
17832;SDS011;9041;49.718;21.798;2023-08-20T01:07:21;27.58;;;14.98;;
17832;SDS011;9041;49.718;21.798;2023-08-20T01:09:54;24.13;;;14.90;;
17832;SDS011;9041;49.718;21.798;2023-08-20T01:12:25;28.60;;;15.98;;
17832;SDS011;9041;49.718;21.798;2023-08-20T01:14:52;31.60;;;15.23;;
17832;SDS011;9041;49.718;21.798;2023-08-20T01:17:20;25.88;;;15.77;;
17832;SDS011;9041;49.718;21.798;2023-08-20T01:19:46;30.15;;;15.57;;
17832;SDS011;9041;49.718;21.798;2023-08-20T01:25:18;24.13;;;14.65;;
17832;SDS011;9041;49.718;21.798;2023-08-20T01:27:58;29.02;;;15.38;;
17832;SDS011;9041;49.718;21.798;2023-08-20T01:30:31;24.38;;;14.32;;
17832;SDS011;9041;49.718;21.798;2023-08-20T01:32:59;24.60;;;13.70;;
17832;SDS011;9041;49.718;21.798;2023-08-20T01:35:26;24.33;;;15.00;;
17832;SDS011;9041;49.718;21.798;2023-08-20T01:37:52;25.50;;;15.48;;
17832;SDS011;9041;49.718;21.798;2023-08-20T01:40:19;25.33;;;14.75;;
17832;SDS011;9041;49.718;21.798;2023-08-20T01:42:46;25.30;;;15.32;;
17832;SDS011;9041;49.718;21.798;2023-08-20T01:45:12;27.38;;;15.27;;
17832;SDS011;9041;49.718;21.798;2023-08-20T01:47:40;25.60;;;15.30;;
17832;SDS011;9041;49.718;21.798;2023-08-20T01:50:08;24.27;;;14.98;;
17832;SDS011;9041;49.718;21.798;2023-08-20T01:52:39;23.17;;;13.95;;
17832;SDS011;9041;49.718;21.798;2023-08-20T01:55:06;23.92;;;14.65;;
17832;SDS011;9041;49.718;21.798;2023-08-20T01:57:33;26.67;;;14.68;;
17832;SDS011;9041;49.718;21.798;2023-08-20T01:59:59;27.13;;;14.68;;
17832;SDS011;9041;49.718;21.798;2023-08-20T02:02:26;23.17;;;14.15;;
17832;SDS011;9041;49.718;21.798;2023-08-20T02:04:54;25.58;;;13.45;;
17832;SDS011;9041;49.718;21.798;2023-08-20T02:07:20;24.42;;;13.38;;
17832;SDS011;9041;49.718;21.798;2023-08-20T02:09:47;22.20;;;13.70;;
17832;SDS011;9041;49.718;21.798;2023-08-20T02:12:14;22.10;;;12.88;;
17832;SDS011;9041;49.718;21.798;2023-08-20T02:14:41;20.73;;;13.20;;
17832;SDS011;9041;49.718;21.798;2023-08-20T02:17:07;20.95;;;12.80;;
17832;SDS011;9041;49.718;21.798;2023-08-20T02:19:37;19.60;;;12.18;;
17832;SDS011;9041;49.718;21.798;2023-08-20T02:22:05;22.58;;;12.77;;
17832;SDS011;9041;49.718;21.798;2023-08-20T02:24:31;19.70;;;12.15;;
17832;SDS011;9041;49.718;21.798;2023-08-20T02:26:58;20.05;;;12.85;;
17832;SDS011;9041;49.718;21.798;2023-08-20T02:29:25;23.80;;;13.70;;
17832;SDS011;9041;49.718;21.798;2023-08-20T02:31:52;24.05;;;14.55;;
17832;SDS011;9041;49.718;21.798;2023-08-20T02:34:18;22.55;;;13.20;;
17832;SDS011;9041;49.718;21.798;2023-08-20T02:36:45;23.20;;;12.73;;
17832;SDS011;9041;49.718;21.798;2023-08-20T02:39:15;20.67;;;12.52;;
17832;SDS011;9041;49.718;21.798;2023-08-20T02:41:42;20.70;;;12.02;;
17832;SDS011;9041;49.718;21.798;2023-08-20T02:44:08;20.02;;;12.30;;
17832;SDS011;9041;49.718;21.798;2023-08-20T02:46:35;19.65;;;12.30;;
17832;SDS011;9041;49.718;21.798;2023-08-20T02:49:03;22.15;;;13.40;;
17832;SDS011;9041;49.718;21.798;2023-08-20T02:51:29;21.83;;;12.75;;
17832;SDS011;9041;49.718;21.798;2023-08-20T02:53:56;20.25;;;12.88;;
17832;SDS011;9041;49.718;21.798;2023-08-20T02:56:24;19.48;;;12.75;;
17832;SDS011;9041;49.718;21.798;2023-08-20T02:58:51;22.92;;;13.27;;
17832;SDS011;9041;49.718;21.798;2023-08-20T03:01:18;27.25;;;13.73;;
17832;SDS011;9041;49.718;21.798;2023-08-20T03:03:45;23.52;;;13.75;;
17832;SDS011;9041;49.718;21.798;2023-08-20T03:06:12;23.70;;;13.48;;
17832;SDS011;9041;49.718;21.798;2023-08-20T03:08:38;21.90;;;13.77;;
17832;SDS011;9041;49.718;21.798;2023-08-20T03:11:05;22.30;;;14.32;;
17832;SDS011;9041;49.718;21.798;2023-08-20T03:13:34;28.27;;;14.57;;
17832;SDS011;9041;49.718;21.798;2023-08-20T03:16:00;21.95;;;14.38;;
17832;SDS011;9041;49.718;21.798;2023-08-20T03:18:27;27.63;;;14.55;;
17832;SDS011;9041;49.718;21.798;2023-08-20T03:20:54;26.35;;;13.98;;
17832;SDS011;9041;49.718;21.798;2023-08-20T03:23:21;21.10;;;13.50;;
17832;SDS011;9041;49.718;21.798;2023-08-20T03:25:47;24.70;;;13.90;;
17832;SDS011;9041;49.718;21.798;2023-08-20T03:28:14;23.95;;;14.38;;
17832;SDS011;9041;49.718;21.798;2023-08-20T03:30:43;24.25;;;14.07;;
17832;SDS011;9041;49.718;21.798;2023-08-20T03:33:09;22.15;;;13.95;;
17832;SDS011;9041;49.718;21.798;2023-08-20T03:35:36;24.40;;;13.90;;
17832;SDS011;9041;49.718;21.798;2023-08-20T03:38:03;23.25;;;13.50;;
17832;SDS011;9041;49.718;21.798;2023-08-20T03:40:30;22.08;;;12.80;;
17832;SDS011;9041;49.718;21.798;2023-08-20T03:42:56;25.42;;;11.68;;
17832;SDS011;9041;49.718;21.798;2023-08-20T03:45:23;19.48;;;11.70;;
17832;SDS011;9041;49.718;21.798;2023-08-20T03:47:51;23.70;;;12.88;;
17832;SDS011;9041;49.718;21.798;2023-08-20T03:50:18;23.45;;;14.00;;
17832;SDS011;9041;49.718;21.798;2023-08-20T03:52:44;20.13;;;11.70;;
17832;SDS011;9041;49.718;21.798;2023-08-20T03:55:11;26.10;;;13.65;;
17832;SDS011;9041;49.718;21.798;2023-08-20T03:57:37;20.77;;;12.50;;
17832;SDS011;9041;49.718;21.798;2023-08-20T04:00:05;27.20;;;13.10;;
17832;SDS011;9041;49.718;21.798;2023-08-20T04:02:34;20.13;;;12.85;;
17832;SDS011;9041;49.718;21.798;2023-08-20T04:05:03;24.02;;;12.52;;
17832;SDS011;9041;49.718;21.798;2023-08-20T04:07:30;20.17;;;12.45;;
17832;SDS011;9041;49.718;21.798;2023-08-20T04:09:57;22.98;;;13.35;;
17832;SDS011;9041;49.718;21.798;2023-08-20T04:12:23;21.30;;;13.32;;
17832;SDS011;9041;49.718;21.798;2023-08-20T04:14:50;23.15;;;13.88;;
17832;SDS011;9041;49.718;21.798;2023-08-20T04:17:17;23.50;;;13.88;;
17832;SDS011;9041;49.718;21.798;2023-08-20T04:19:43;22.70;;;13.75;;
17832;SDS011;9041;49.718;21.798;2023-08-20T04:22:11;25.95;;;14.43;;
17832;SDS011;9041;49.718;21.798;2023-08-20T04:24:38;22.63;;;14.68;;
17832;SDS011;9041;49.718;21.798;2023-08-20T04:27:05;22.63;;;14.43;;
17832;SDS011;9041;49.718;21.798;2023-08-20T04:29:32;23.98;;;14.18;;
17832;SDS011;9041;49.718;21.798;2023-08-20T04:31:59;29.42;;;15.05;;
17832;SDS011;9041;49.718;21.798;2023-08-20T04:34:26;29.75;;;14.95;;
17832;SDS011;9041;49.718;21.798;2023-08-20T04:36:53;31.60;;;15.38;;
17832;SDS011;9041;49.718;21.798;2023-08-20T04:39:21;22.10;;;14.02;;
17832;SDS011;9041;49.718;21.798;2023-08-20T04:41:48;30.45;;;16.95;;
17832;SDS011;9041;49.718;21.798;2023-08-20T04:44:14;33.60;;;19.27;;
17832;SDS011;9041;49.718;21.798;2023-08-20T04:46:41;30.88;;;18.75;;
17832;SDS011;9041;49.718;21.798;2023-08-20T04:49:09;38.00;;;19.65;;
17832;SDS011;9041;49.718;21.798;2023-08-20T04:51:35;40.33;;;24.15;;
17832;SDS011;9041;49.718;21.798;2023-08-20T04:54:02;46.40;;;28.00;;
17832;SDS011;9041;49.718;21.798;2023-08-20T04:56:30;31.38;;;18.88;;
17832;SDS011;9041;49.718;21.798;2023-08-20T04:58:58;28.75;;;15.82;;
17832;SDS011;9041;49.718;21.798;2023-08-20T05:01:26;22.35;;;14.27;;
17832;SDS011;9041;49.718;21.798;2023-08-20T05:03:52;26.95;;;15.27;;
17832;SDS011;9041;49.718;21.798;2023-08-20T05:06:19;22.65;;;13.98;;
17832;SDS011;9041;49.718;21.798;2023-08-20T05:08:46;26.70;;;14.73;;
17832;SDS011;9041;49.718;21.798;2023-08-20T05:11:12;26.55;;;15.20;;
17832;SDS011;9041;49.718;21.798;2023-08-20T05:13:40;22.15;;;14.20;;
17832;SDS011;9041;49.718;21.798;2023-08-20T05:16:07;24.10;;;14.13;;
17832;SDS011;9041;49.718;21.798;2023-08-20T05:18:34;21.45;;;13.75;;
17832;SDS011;9041;49.718;21.798;2023-08-20T05:21:00;26.70;;;14.00;;
17832;SDS011;9041;49.718;21.798;2023-08-20T05:23:27;21.13;;;13.38;;
17832;SDS011;9041;49.718;21.798;2023-08-20T05:25:54;19.08;;;12.32;;
17832;SDS011;9041;49.718;21.798;2023-08-20T05:28:21;18.42;;;12.35;;
17832;SDS011;9041;49.718;21.798;2023-08-20T05:30:54;21.35;;;13.30;;
17832;SDS011;9041;49.718;21.798;2023-08-20T05:33:22;21.40;;;12.73;;
17832;SDS011;9041;49.718;21.798;2023-08-20T05:35:49;21.42;;;12.48;;
17832;SDS011;9041;49.718;21.798;2023-08-20T05:38:15;28.75;;;13.65;;
17832;SDS011;9041;49.718;21.798;2023-08-20T05:40:42;18.55;;;11.75;;
17832;SDS011;9041;49.718;21.798;2023-08-20T05:43:09;20.40;;;12.30;;
17832;SDS011;9041;49.718;21.798;2023-08-20T05:45:40;20.27;;;13.38;;
17832;SDS011;9041;49.718;21.798;2023-08-20T05:48:11;24.05;;;11.88;;
17832;SDS011;9041;49.718;21.798;2023-08-20T05:50:38;20.30;;;11.60;;
17832;SDS011;9041;49.718;21.798;2023-08-20T05:53:07;23.77;;;10.45;;
17832;SDS011;9041;49.718;21.798;2023-08-20T05:55:35;16.50;;;10.25;;
17832;SDS011;9041;49.718;21.798;2023-08-20T05:58:01;17.27;;;10.95;;
17832;SDS011;9041;49.718;21.798;2023-08-20T06:00:29;15.18;;;10.18;;
17832;SDS011;9041;49.718;21.798;2023-08-20T06:02:56;19.08;;;11.15;;
17832;SDS011;9041;49.718;21.798;2023-08-20T06:05:24;15.80;;;10.52;;
17832;SDS011;9041;49.718;21.798;2023-08-20T06:07:51;17.45;;;10.68;;
17832;SDS011;9041;49.718;21.798;2023-08-20T06:10:18;15.73;;;11.23;;
17832;SDS011;9041;49.718;21.798;2023-08-20T06:12:45;17.42;;;10.68;;
17832;SDS011;9041;49.718;21.798;2023-08-20T06:15:11;16.80;;;10.63;;
17832;SDS011;9041;49.718;21.798;2023-08-20T06:17:38;28.90;;;11.32;;
17832;SDS011;9041;49.718;21.798;2023-08-20T06:20:05;20.05;;;10.20;;
17832;SDS011;9041;49.718;21.798;2023-08-20T06:22:34;20.63;;;11.02;;
17832;SDS011;9041;49.718;21.798;2023-08-20T06:25:01;22.08;;;10.52;;
17832;SDS011;9041;49.718;21.798;2023-08-20T06:27:28;17.50;;;10.23;;
17832;SDS011;9041;49.718;21.798;2023-08-20T06:29:55;11.80;;;9.48;;
17832;SDS011;9041;49.718;21.798;2023-08-20T06:32:22;14.23;;;9.32;;
17832;SDS011;9041;49.718;21.798;2023-08-20T06:34:49;14.40;;;9.55;;
17832;SDS011;9041;49.718;21.798;2023-08-20T06:37:16;12.98;;;9.45;;
17832;SDS011;9041;49.718;21.798;2023-08-20T06:39:44;20.98;;;9.52;;
17832;SDS011;9041;49.718;21.798;2023-08-20T06:42:10;16.08;;;9.82;;
17832;SDS011;9041;49.718;21.798;2023-08-20T06:44:37;14.02;;;9.68;;
17832;SDS011;9041;49.718;21.798;2023-08-20T06:47:04;15.15;;;9.07;;
17832;SDS011;9041;49.718;21.798;2023-08-20T06:49:32;17.50;;;8.98;;
17832;SDS011;9041;49.718;21.798;2023-08-20T06:52:01;13.73;;;8.90;;
17832;SDS011;9041;49.718;21.798;2023-08-20T06:54:30;20.83;;;9.40;;
17832;SDS011;9041;49.718;21.798;2023-08-20T06:56:59;19.63;;;9.20;;
17832;SDS011;9041;49.718;21.798;2023-08-20T06:59:26;11.18;;;9.18;;
17832;SDS011;9041;49.718;21.798;2023-08-20T07:01:53;11.85;;;8.88;;
17832;SDS011;9041;49.718;21.798;2023-08-20T07:04:20;13.60;;;9.40;;
17832;SDS011;9041;49.718;21.798;2023-08-20T07:06:46;18.02;;;9.38;;
17832;SDS011;9041;49.718;21.798;2023-08-20T07:09:13;17.73;;;9.05;;
17832;SDS011;9041;49.718;21.798;2023-08-20T07:11:42;14.43;;;9.23;;
17832;SDS011;9041;49.718;21.798;2023-08-20T07:14:10;17.40;;;9.48;;
17832;SDS011;9041;49.718;21.798;2023-08-20T07:16:46;15.10;;;9.18;;
17832;SDS011;9041;49.718;21.798;2023-08-20T07:19:12;16.10;;;9.70;;
17832;SDS011;9041;49.718;21.798;2023-08-20T07:21:40;14.02;;;9.40;;
17832;SDS011;9041;49.718;21.798;2023-08-20T07:24:07;14.55;;;9.05;;
17832;SDS011;9041;49.718;21.798;2023-08-20T07:26:34;25.42;;;10.10;;
17832;SDS011;9041;49.718;21.798;2023-08-20T07:29:02;15.02;;;8.93;;
17832;SDS011;9041;49.718;21.798;2023-08-20T07:31:32;13.20;;;9.00;;
17832;SDS011;9041;49.718;21.798;2023-08-20T07:34:00;10.43;;;8.88;;
17832;SDS011;9041;49.718;21.798;2023-08-20T07:36:29;14.10;;;9.82;;
17832;SDS011;9041;49.718;21.798;2023-08-20T07:38:59;12.20;;;8.95;;
17832;SDS011;9041;49.718;21.798;2023-08-20T07:41:25;15.00;;;9.07;;
17832;SDS011;9041;49.718;21.798;2023-08-20T07:43:52;19.73;;;9.68;;
17832;SDS011;9041;49.718;21.798;2023-08-20T07:46:19;20.42;;;9.93;;
17832;SDS011;9041;49.718;21.798;2023-08-20T07:48:49;14.57;;;9.77;;
17832;SDS011;9041;49.718;21.798;2023-08-20T07:51:18;26.83;;;10.45;;
17832;SDS011;9041;49.718;21.798;2023-08-20T07:53:45;14.15;;;9.75;;
17832;SDS011;9041;49.718;21.798;2023-08-20T07:56:12;22.77;;;10.88;;
17832;SDS011;9041;49.718;21.798;2023-08-20T07:58:39;27.95;;;10.57;;
17832;SDS011;9041;49.718;21.798;2023-08-20T08:01:05;16.40;;;10.88;;
17832;SDS011;9041;49.718;21.798;2023-08-20T08:03:32;15.88;;;9.25;;
17832;SDS011;9041;49.718;21.798;2023-08-20T08:06:03;13.82;;;9.98;;
17832;SDS011;9041;49.718;21.798;2023-08-20T08:08:30;17.45;;;10.20;;
17832;SDS011;9041;49.718;21.798;2023-08-20T08:10:57;15.85;;;10.52;;
17832;SDS011;9041;49.718;21.798;2023-08-20T08:13:24;18.63;;;10.52;;
17832;SDS011;9041;49.718;21.798;2023-08-20T08:15:50;17.42;;;10.57;;
17832;SDS011;9041;49.718;21.798;2023-08-20T08:18:17;16.70;;;10.80;;
17832;SDS011;9041;49.718;21.798;2023-08-20T08:20:46;16.13;;;10.68;;
17832;SDS011;9041;49.718;21.798;2023-08-20T08:23:17;14.95;;;10.15;;
17832;SDS011;9041;49.718;21.798;2023-08-20T08:25:44;13.68;;;10.13;;
17832;SDS011;9041;49.718;21.798;2023-08-20T08:28:11;18.45;;;10.82;;
17832;SDS011;9041;49.718;21.798;2023-08-20T08:30:37;19.08;;;10.80;;
17832;SDS011;9041;49.718;21.798;2023-08-20T08:33:05;16.67;;;11.05;;
17832;SDS011;9041;49.718;21.798;2023-08-20T08:35:37;19.15;;;11.00;;
17832;SDS011;9041;49.718;21.798;2023-08-20T08:38:07;18.02;;;10.85;;
17832;SDS011;9041;49.718;21.798;2023-08-20T08:40:40;18.58;;;10.80;;
17832;SDS011;9041;49.718;21.798;2023-08-20T08:43:09;14.30;;;10.77;;
17832;SDS011;9041;49.718;21.798;2023-08-20T08:45:41;22.08;;;11.68;;
17832;SDS011;9041;49.718;21.798;2023-08-20T08:48:13;16.08;;;11.30;;
17832;SDS011;9041;49.718;21.798;2023-08-20T08:50:40;16.38;;;10.63;;
17832;SDS011;9041;49.718;21.798;2023-08-20T08:53:07;14.88;;;11.38;;
17832;SDS011;9041;49.718;21.798;2023-08-20T08:55:58;16.48;;;10.90;;
17832;SDS011;9041;49.718;21.798;2023-08-20T08:58:26;14.52;;;10.88;;
17832;SDS011;9041;49.718;21.798;2023-08-20T09:00:52;15.38;;;11.13;;
17832;SDS011;9041;49.718;21.798;2023-08-20T09:03:19;16.02;;;11.43;;
17832;SDS011;9041;49.718;21.798;2023-08-20T09:05:46;17.45;;;11.45;;
17832;SDS011;9041;49.718;21.798;2023-08-20T09:08:19;15.57;;;11.82;;
17832;SDS011;9041;49.718;21.798;2023-08-20T09:10:46;20.58;;;12.60;;
17832;SDS011;9041;49.718;21.798;2023-08-20T09:13:14;16.67;;;12.02;;
17832;SDS011;9041;49.718;21.798;2023-08-20T09:15:40;15.52;;;12.13;;
17832;SDS011;9041;49.718;21.798;2023-08-20T09:18:13;15.68;;;11.45;;
17832;SDS011;9041;49.718;21.798;2023-08-20T09:20:40;18.10;;;11.90;;
17832;SDS011;9041;49.718;21.798;2023-08-20T09:23:10;18.30;;;11.48;;
17832;SDS011;9041;49.718;21.798;2023-08-20T09:25:40;16.50;;;11.65;;
17832;SDS011;9041;49.718;21.798;2023-08-20T09:28:08;14.50;;;12.15;;
17832;SDS011;9041;49.718;21.798;2023-08-20T09:30:36;17.23;;;12.52;;
17832;SDS011;9041;49.718;21.798;2023-08-20T09:33:10;17.40;;;11.98;;
17832;SDS011;9041;49.718;21.798;2023-08-20T09:35:45;16.80;;;12.45;;
17832;SDS011;9041;49.718;21.798;2023-08-20T09:38:14;16.75;;;11.60;;
17832;SDS011;9041;49.718;21.798;2023-08-20T09:40:45;15.38;;;11.85;;
17832;SDS011;9041;49.718;21.798;2023-08-20T09:43:15;15.40;;;11.38;;
17832;SDS011;9041;49.718;21.798;2023-08-20T09:45:47;15.02;;;12.27;;
17832;SDS011;9041;49.718;21.798;2023-08-20T09:48:15;13.50;;;11.52;;
17832;SDS011;9041;49.718;21.798;2023-08-20T09:50:44;14.77;;;11.35;;
17832;SDS011;9041;49.718;21.798;2023-08-20T09:53:16;17.25;;;12.15;;
17832;SDS011;9041;49.718;21.798;2023-08-20T09:55:44;14.73;;;11.60;;
17832;SDS011;9041;49.718;21.798;2023-08-20T09:58:11;12.90;;;11.15;;
17832;SDS011;9041;49.718;21.798;2023-08-20T10:00:38;16.83;;;12.05;;
17832;SDS011;9041;49.718;21.798;2023-08-20T10:03:07;14.30;;;11.35;;
17832;SDS011;9041;49.718;21.798;2023-08-20T10:05:36;17.77;;;12.27;;
17832;SDS011;9041;49.718;21.798;2023-08-20T10:08:06;16.27;;;11.48;;
17832;SDS011;9041;49.718;21.798;2023-08-20T10:10:33;16.40;;;11.27;;
17832;SDS011;9041;49.718;21.798;2023-08-20T10:13:00;13.30;;;11.55;;
17832;SDS011;9041;49.718;21.798;2023-08-20T10:15:28;17.02;;;11.38;;
17832;SDS011;9041;49.718;21.798;2023-08-20T10:18:01;13.65;;;11.00;;
17832;SDS011;9041;49.718;21.798;2023-08-20T10:20:32;18.48;;;11.70;;
17832;SDS011;9041;49.718;21.798;2023-08-20T10:23:02;21.25;;;11.52;;
17832;SDS011;9041;49.718;21.798;2023-08-20T10:25:30;15.90;;;11.95;;
17832;SDS011;9041;49.718;21.798;2023-08-20T10:28:10;16.02;;;11.13;;
17832;SDS011;9041;49.718;21.798;2023-08-20T10:30:38;16.98;;;11.65;;
17832;SDS011;9041;49.718;21.798;2023-08-20T10:33:04;14.15;;;11.02;;
17832;SDS011;9041;49.718;21.798;2023-08-20T10:38:23;17.70;;;11.27;;
17832;SDS011;9041;49.718;21.798;2023-08-20T10:40:52;15.48;;;11.50;;
17832;SDS011;9041;49.718;21.798;2023-08-20T10:43:28;12.57;;;11.07;;
17832;SDS011;9041;49.718;21.798;2023-08-20T10:46:02;14.38;;;10.48;;
17832;SDS011;9041;49.718;21.798;2023-08-20T10:48:36;15.05;;;10.00;;
17832;SDS011;9041;49.718;21.798;2023-08-20T10:51:07;13.35;;;11.52;;
17832;SDS011;9041;49.718;21.798;2023-08-20T10:53:39;14.63;;;11.88;;
17832;SDS011;9041;49.718;21.798;2023-08-20T10:56:13;13.85;;;11.00;;
17832;SDS011;9041;49.718;21.798;2023-08-20T10:58:44;16.70;;;10.65;;
17832;SDS011;9041;49.718;21.798;2023-08-20T11:01:13;21.15;;;11.27;;
17832;SDS011;9041;49.718;21.798;2023-08-20T11:03:41;15.65;;;11.85;;
17832;SDS011;9041;49.718;21.798;2023-08-20T11:06:08;16.20;;;11.38;;
17832;SDS011;9041;49.718;21.798;2023-08-20T11:08:35;19.77;;;11.05;;
17832;SDS011;9041;49.718;21.798;2023-08-20T11:11:06;16.02;;;11.55;;
17832;SDS011;9041;49.718;21.798;2023-08-20T11:13:36;18.58;;;11.82;;
17832;SDS011;9041;49.718;21.798;2023-08-20T11:16:02;15.30;;;10.88;;
17832;SDS011;9041;49.718;21.798;2023-08-20T11:18:30;17.98;;;11.52;;
17832;SDS011;9041;49.718;21.798;2023-08-20T11:21:00;17.45;;;11.27;;
17832;SDS011;9041;49.718;21.798;2023-08-20T11:23:27;13.52;;;11.70;;
17832;SDS011;9041;49.718;21.798;2023-08-20T11:25:54;13.25;;;10.52;;
17832;SDS011;9041;49.718;21.798;2023-08-20T11:28:22;12.63;;;10.32;;
17832;SDS011;9041;49.718;21.798;2023-08-20T11:30:51;12.07;;;10.55;;
17832;SDS011;9041;49.718;21.798;2023-08-20T11:33:22;12.50;;;10.52;;
17832;SDS011;9041;49.718;21.798;2023-08-20T11:35:49;14.80;;;10.32;;
17832;SDS011;9041;49.718;21.798;2023-08-20T11:38:20;13.13;;;10.32;;
17832;SDS011;9041;49.718;21.798;2023-08-20T11:40:50;13.20;;;10.32;;
17832;SDS011;9041;49.718;21.798;2023-08-20T11:43:18;12.52;;;10.55;;
17832;SDS011;9041;49.718;21.798;2023-08-20T11:45:47;12.82;;;10.20;;
17832;SDS011;9041;49.718;21.798;2023-08-20T11:48:15;16.10;;;10.07;;
17832;SDS011;9041;49.718;21.798;2023-08-20T11:50:42;12.77;;;10.48;;
17832;SDS011;9041;49.718;21.798;2023-08-20T11:53:09;13.02;;;10.52;;
17832;SDS011;9041;49.718;21.798;2023-08-20T11:55:37;15.68;;;11.50;;
17832;SDS011;9041;49.718;21.798;2023-08-20T11:58:05;13.35;;;10.75;;
17832;SDS011;9041;49.718;21.798;2023-08-20T12:00:36;15.38;;;11.35;;
17832;SDS011;9041;49.718;21.798;2023-08-20T12:03:04;14.00;;;11.02;;
17832;SDS011;9041;49.718;21.798;2023-08-20T12:05:31;12.73;;;11.25;;
17832;SDS011;9041;49.718;21.798;2023-08-20T12:08:01;15.95;;;11.85;;
17832;SDS011;9041;49.718;21.798;2023-08-20T12:10:29;14.75;;;11.50;;
17832;SDS011;9041;49.718;21.798;2023-08-20T12:12:57;18.98;;;11.43;;
17832;SDS011;9041;49.718;21.798;2023-08-20T12:15:24;15.18;;;11.90;;
17832;SDS011;9041;49.718;21.798;2023-08-20T12:17:57;15.60;;;12.23;;
17832;SDS011;9041;49.718;21.798;2023-08-20T12:20:28;17.60;;;12.57;;
17832;SDS011;9041;49.718;21.798;2023-08-20T12:22:57;17.90;;;12.70;;
17832;SDS011;9041;49.718;21.798;2023-08-20T12:25:24;22.88;;;12.13;;
17832;SDS011;9041;49.718;21.798;2023-08-20T12:27:55;14.50;;;11.57;;
17832;SDS011;9041;49.718;21.798;2023-08-20T12:30:23;23.30;;;11.55;;
17832;SDS011;9041;49.718;21.798;2023-08-20T12:32:49;15.98;;;11.38;;
17832;SDS011;9041;49.718;21.798;2023-08-20T12:35:16;14.20;;;11.52;;
17832;SDS011;9041;49.718;21.798;2023-08-20T12:37:49;13.95;;;11.70;;
17832;SDS011;9041;49.718;21.798;2023-08-20T12:40:15;19.23;;;11.88;;
17832;SDS011;9041;49.718;21.798;2023-08-20T12:42:45;15.95;;;11.52;;
17832;SDS011;9041;49.718;21.798;2023-08-20T12:45:13;14.55;;;11.00;;
17832;SDS011;9041;49.718;21.798;2023-08-20T12:47:40;13.80;;;11.48;;
17832;SDS011;9041;49.718;21.798;2023-08-20T12:50:13;16.67;;;10.88;;
17832;SDS011;9041;49.718;21.798;2023-08-20T12:52:40;14.90;;;11.20;;
17832;SDS011;9041;49.718;21.798;2023-08-20T12:55:10;16.80;;;11.50;;
17832;SDS011;9041;49.718;21.798;2023-08-20T12:57:51;13.73;;;11.15;;
17832;SDS011;9041;49.718;21.798;2023-08-20T13:00:18;15.70;;;11.10;;
17832;SDS011;9041;49.718;21.798;2023-08-20T13:02:45;14.60;;;11.52;;
17832;SDS011;9041;49.718;21.798;2023-08-20T13:05:13;13.02;;;10.77;;
17832;SDS011;9041;49.718;21.798;2023-08-20T13:07:43;13.40;;;10.65;;
17832;SDS011;9041;49.718;21.798;2023-08-20T13:10:12;13.80;;;11.23;;
17832;SDS011;9041;49.718;21.798;2023-08-20T13:12:42;12.90;;;9.57;;
17832;SDS011;9041;49.718;21.798;2023-08-20T13:15:14;12.95;;;10.52;;
17832;SDS011;9041;49.718;21.798;2023-08-20T13:17:47;13.70;;;10.40;;
17832;SDS011;9041;49.718;21.798;2023-08-20T13:20:15;16.50;;;10.32;;
17832;SDS011;9041;49.718;21.798;2023-08-20T13:22:48;13.82;;;11.43;;
17832;SDS011;9041;49.718;21.798;2023-08-20T13:25:16;15.50;;;10.68;;
17832;SDS011;9041;49.718;21.798;2023-08-20T13:27:48;14.32;;;10.63;;
17832;SDS011;9041;49.718;21.798;2023-08-20T13:30:15;12.90;;;10.25;;
17832;SDS011;9041;49.718;21.798;2023-08-20T13:32:44;12.27;;;9.65;;
17832;SDS011;9041;49.718;21.798;2023-08-20T13:35:11;14.32;;;8.50;;
17832;SDS011;9041;49.718;21.798;2023-08-20T13:37:41;11.75;;;9.90;;
17832;SDS011;9041;49.718;21.798;2023-08-20T13:40:08;15.40;;;9.65;;
17832;SDS011;9041;49.718;21.798;2023-08-20T13:42:41;14.18;;;9.25;;
17832;SDS011;9041;49.718;21.798;2023-08-20T13:45:09;11.15;;;9.18;;
17832;SDS011;9041;49.718;21.798;2023-08-20T13:47:36;12.88;;;8.80;;
17832;SDS011;9041;49.718;21.798;2023-08-20T13:50:06;14.50;;;9.38;;
17832;SDS011;9041;49.718;21.798;2023-08-20T13:52:34;10.45;;;9.23;;
17832;SDS011;9041;49.718;21.798;2023-08-20T13:55:01;11.02;;;9.40;;
17832;SDS011;9041;49.718;21.798;2023-08-20T13:57:28;12.38;;;9.70;;
17832;SDS011;9041;49.718;21.798;2023-08-20T13:59:59;11.57;;;9.20;;
17832;SDS011;9041;49.718;21.798;2023-08-20T14:02:32;11.55;;;9.07;;
17832;SDS011;9041;49.718;21.798;2023-08-20T14:04:59;10.27;;;9.23;;
17832;SDS011;9041;49.718;21.798;2023-08-20T14:07:26;15.30;;;9.60;;
17832;SDS011;9041;49.718;21.798;2023-08-20T14:09:54;12.07;;;8.82;;
17832;SDS011;9041;49.718;21.798;2023-08-20T14:12:23;10.52;;;9.40;;
17832;SDS011;9041;49.718;21.798;2023-08-20T14:15:00;13.32;;;9.68;;
17832;SDS011;9041;49.718;21.798;2023-08-20T14:17:27;12.18;;;9.68;;
17832;SDS011;9041;49.718;21.798;2023-08-20T14:19:57;13.05;;;9.35;;
17832;SDS011;9041;49.718;21.798;2023-08-20T14:22:23;11.80;;;9.23;;
17832;SDS011;9041;49.718;21.798;2023-08-20T14:24:50;15.63;;;9.38;;
17832;SDS011;9041;49.718;21.798;2023-08-20T14:27:19;12.13;;;9.75;;
17832;SDS011;9041;49.718;21.798;2023-08-20T14:29:47;11.05;;;9.43;;
17832;SDS011;9041;49.718;21.798;2023-08-20T14:32:15;12.82;;;9.50;;
17832;SDS011;9041;49.718;21.798;2023-08-20T14:34:45;11.55;;;9.40;;